Estación Meteorológica Peña el Pijo (Robertgarden) [ 12/11/18 10:43:22 CET ]

Fecha Hora Presion(HPa) Temp (°C) Humedad % Rocio (°C) Viento ( m/s) Direccion Lluvia 1Hora(mm) Lluvia 24H(mm) LLuvia Total(mm)
2018-Feb-18 01:02:03 1011.300 4.4 75 0.3         82.36
2018-Feb-18 02:02:33 1011.100 4.2 76 0.3         82.36
2018-Feb-18 03:04:31 1010.600 4.2 77 0.5         82.36
2018-Feb-18 04:01:55 1010.400 4.2 78 0.7         82.36
2018-Feb-18 05:01:55 1010.000 3.0 78 -0.5         82.36
2018-Feb-18 06:01:55 1010.000 1.8 80 -1.3         82.36
2018-Feb-18 07:01:48 1009.900 1.2 82 -1.6         82.36
2018-Feb-18 08:01:37 1010.200 0.7 83 -1.9         82.36
2018-Feb-18 09:01:42 1010.500 0.9 84 -1.6         82.36
2018-Feb-18 10:01:42 1010.100 6.8 84 4.3         82.36
2018-Feb-18 11:01:54 1010.200 8.9 73 4.5         82.36
2018-Feb-18 12:01:46 1009.700 9.4 69 4.0         82.36
2018-Feb-18 13:01:52 1009.100 10.7 67 4.8         82.36
2018-Feb-18 14:01:52 1008.400 10.4 66 4.3         82.36
2018-Feb-18 15:01:51 1008.100 10.8 64 4.2         82.36
2018-Feb-18 16:01:45 1007.700 10.8 65 4.5         82.36
2018-Feb-18 17:01:46 1007.600 10.6 64 4.0         82.36
2018-Feb-18 18:01:50 1007.700 9.9 67 4.0         82.36
2018-Feb-18 19:01:57 1008.000 8.7 72 3.9         82.36
2018-Feb-18 20:01:36 1008.300 8.1 75 3.9         82.36
2018-Feb-18 21:01:45 1008.300 6.9 77 3.1         82.36
2018-Feb-18 22:01:37 1008.300 5.0 79 1.6         82.36
2018-Feb-18 23:01:43 1008.200 4.7 81 1.6         82.36

Temperatura Máxima:10°    Temperatura Mínima:
Presión Máxima:1011.300 Hpa    Presión Mínima:1007.600 Hpa


Volver